createdAt,value
2023-05-10T00:01:27.308Z,13.29
2023-05-10T00:03:54.009Z,13.24
2023-05-10T00:06:21.294Z,13.18
2023-05-10T00:08:47.813Z,13.20
2023-05-10T00:11:14.376Z,13.19
2023-05-10T00:13:41.374Z,13.17
2023-05-10T00:16:08.116Z,13.12
2023-05-10T00:18:34.790Z,13.01
2023-05-10T00:21:01.435Z,13.01
2023-05-10T00:23:27.977Z,12.93
2023-05-10T00:25:54.549Z,12.96
2023-05-10T00:28:21.158Z,12.90
2023-05-10T00:30:47.707Z,13.01
2023-05-10T00:33:14.302Z,12.92
2023-05-10T00:35:41.360Z,13.02
2023-05-10T00:38:07.958Z,13.10
2023-05-10T00:40:36.914Z,12.69
2023-05-10T00:43:04.052Z,12.78
2023-05-10T00:45:33.693Z,12.81
2023-05-10T00:48:03.417Z,12.95
2023-05-10T00:50:30.604Z,12.94
2023-05-10T00:52:58.721Z,12.92
2023-05-10T00:55:25.371Z,13.24
2023-05-10T00:57:52.403Z,13.06
2023-05-10T01:00:19.670Z,13.12
2023-05-10T01:02:47.478Z,13.17
2023-05-10T01:05:14.729Z,13.20
2023-05-10T01:07:42.108Z,13.10
2023-05-10T01:10:09.747Z,13.03
2023-05-10T01:12:41.664Z,13.00
2023-05-10T01:15:10.673Z,12.97
2023-05-10T01:17:40.453Z,13.10
2023-05-10T01:20:11.851Z,13.07
2023-05-10T01:23:00.174Z,13.10
2023-05-10T01:25:48.402Z,13.08
2023-05-10T01:28:36.878Z,13.11
2023-05-10T01:31:09.355Z,13.10
2023-05-10T01:34:03.471Z,13.09
2023-05-10T01:36:48.264Z,13.13
2023-05-10T01:39:37.075Z,13.02
2023-05-10T01:42:15.041Z,12.98
2023-05-10T01:44:53.970Z,13.12
2023-05-10T01:47:43.029Z,12.97
2023-05-10T01:50:14.370Z,13.01
2023-05-10T01:52:44.826Z,12.91
2023-05-10T01:55:17.086Z,12.92
2023-05-10T01:57:47.105Z,12.85
2023-05-10T02:00:15.725Z,12.91
2023-05-10T02:02:47.018Z,12.77
2023-05-10T02:05:15.427Z,12.74
2023-05-10T02:07:42.772Z,12.68
2023-05-10T02:10:10.917Z,12.73
2023-05-10T02:12:42.636Z,12.85
2023-05-10T02:15:11.565Z,12.97
2023-05-10T02:17:40.196Z,12.93
2023-05-10T02:20:08.774Z,12.86
2023-05-10T02:22:36.775Z,12.92
2023-05-10T02:25:04.673Z,12.95
2023-05-10T02:27:32.016Z,12.84
2023-05-10T02:29:59.525Z,12.93
2023-05-10T02:32:28.583Z,13.00
2023-05-10T02:34:56.182Z,12.92
2023-05-10T02:37:23.587Z,12.79
2023-05-10T02:39:51.741Z,12.77
2023-05-10T02:42:20.558Z,12.93
2023-05-10T02:44:50.497Z,12.82
2023-05-10T02:47:17.771Z,12.88
2023-05-10T02:49:44.414Z,12.74
2023-05-10T02:52:11.543Z,12.75
2023-05-10T02:54:46.256Z,12.69
2023-05-10T02:57:20.266Z,12.64
2023-05-10T02:59:47.093Z,12.70
2023-05-10T03:02:14.154Z,12.76
2023-05-10T03:04:40.832Z,12.70
2023-05-10T03:07:08.714Z,12.57
2023-05-10T03:09:35.505Z,12.48
2023-05-10T03:12:07.776Z,12.50
2023-05-10T03:14:40.371Z,12.53
2023-05-10T03:17:09.984Z,12.51
2023-05-10T03:19:54.548Z,12.50
2023-05-10T03:22:48.012Z,12.40
2023-05-10T03:25:17.644Z,12.39
2023-05-10T03:27:45.680Z,12.32
2023-05-10T03:30:14.010Z,12.33
2023-05-10T03:32:41.010Z,12.41
2023-05-10T03:35:11.636Z,12.44
2023-05-10T03:37:38.370Z,12.45
2023-05-10T03:40:05.537Z,12.54
2023-05-10T03:42:32.294Z,12.45
2023-05-10T03:44:58.859Z,12.42
2023-05-10T03:47:25.432Z,12.33
2023-05-10T03:49:51.945Z,12.41
2023-05-10T03:52:19.166Z,12.34
2023-05-10T03:54:45.731Z,12.28
2023-05-10T03:57:12.264Z,12.24
2023-05-10T03:59:38.954Z,12.18
2023-05-10T04:02:05.508Z,12.17
2023-05-10T04:04:32.118Z,12.17
2023-05-10T04:06:58.831Z,12.18
2023-05-10T04:09:25.410Z,12.16
2023-05-10T04:11:52.257Z,12.18
2023-05-10T04:14:18.859Z,12.24
2023-05-10T04:16:45.897Z,12.32
2023-05-10T04:19:12.657Z,12.24
2023-05-10T04:21:39.260Z,12.28
2023-05-10T04:24:06.072Z,12.23
2023-05-10T04:26:32.699Z,12.32
2023-05-10T04:28:59.274Z,12.14
2023-05-10T04:31:26.016Z,12.25
2023-05-10T04:33:53.243Z,12.31
2023-05-10T04:36:19.803Z,12.30
2023-05-10T04:38:46.393Z,12.45
2023-05-10T04:41:13.161Z,12.41
2023-05-10T04:43:39.807Z,12.38
2023-05-10T04:46:06.927Z,12.49
2023-05-10T04:48:33.607Z,12.31
2023-05-10T04:51:00.672Z,12.27
2023-05-10T04:53:27.230Z,12.19
2023-05-10T04:55:53.847Z,12.35
2023-05-10T04:58:20.384Z,12.40
2023-05-10T05:00:46.998Z,12.40
2023-05-10T05:03:13.655Z,12.41
2023-05-10T05:05:40.284Z,12.19
2023-05-10T05:08:06.923Z,12.16
2023-05-10T05:10:33.636Z,12.12
2023-05-10T05:13:00.272Z,12.27
2023-05-10T05:15:27.052Z,12.31
2023-05-10T05:17:53.671Z,12.39
2023-05-10T05:20:20.288Z,12.21
2023-05-10T05:22:46.972Z,12.27
2023-05-10T05:25:13.735Z,12.06
2023-05-10T05:27:40.318Z,12.16
2023-05-10T05:30:08.008Z,12.21
2023-05-10T05:32:34.823Z,12.17
2023-05-10T05:35:01.518Z,11.98
2023-05-10T05:37:28.117Z,12.02
2023-05-10T05:39:55.972Z,12.12
2023-05-10T05:42:22.665Z,12.08
2023-05-10T05:44:49.273Z,12.13
2023-05-10T05:47:15.916Z,12.01
2023-05-10T05:49:42.489Z,12.05
2023-05-10T05:52:09.120Z,12.16
2023-05-10T05:54:35.655Z,11.97
2023-05-10T05:57:02.208Z,12.09
2023-05-10T05:59:29.194Z,12.25
2023-05-10T06:01:55.917Z,12.23
2023-05-10T06:04:22.664Z,12.44
2023-05-10T06:06:49.491Z,12.90
2023-05-10T06:09:16.140Z,12.81
2023-05-10T06:11:42.721Z,12.55
2023-05-10T06:14:09.355Z,12.60
2023-05-10T06:16:36.257Z,12.49
2023-05-10T06:19:03.877Z,12.60
2023-05-10T06:21:31.085Z,12.48
2023-05-10T06:23:57.985Z,12.44
2023-05-10T06:26:24.617Z,12.39
2023-05-10T06:28:51.159Z,12.43
2023-05-10T06:31:17.902Z,12.46
2023-05-10T06:33:44.474Z,12.46
2023-05-10T06:36:11.050Z,12.54
2023-05-10T06:38:37.938Z,12.59
2023-05-10T06:41:04.491Z,12.75
2023-05-10T06:43:31.092Z,12.72
2023-05-10T06:45:57.776Z,12.88
2023-05-10T06:48:24.648Z,12.94
2023-05-10T06:50:51.222Z,12.77
2023-05-10T06:53:17.815Z,12.68
2023-05-10T06:55:44.538Z,12.72
2023-05-10T06:58:11.049Z,12.94
2023-05-10T07:00:41.523Z,13.10
2023-05-10T07:03:08.330Z,13.47
2023-05-10T07:05:35.469Z,13.26
2023-05-10T07:08:02.956Z,13.14
2023-05-10T07:10:29.520Z,13.47
2023-05-10T07:12:56.208Z,13.65
2023-05-10T07:15:23.004Z,13.76
2023-05-10T07:17:49.746Z,13.59
2023-05-10T07:20:16.577Z,13.51
2023-05-10T07:22:43.247Z,13.59
2023-05-10T07:25:10.018Z,13.75
2023-05-10T07:27:36.919Z,13.64
2023-05-10T07:30:03.926Z,13.85
2023-05-10T07:32:30.686Z,14.13
2023-05-10T07:34:57.376Z,13.98
2023-05-10T07:37:23.939Z,14.03
2023-05-10T07:39:50.539Z,14.33
2023-05-10T07:42:17.352Z,14.23
2023-05-10T07:44:44.337Z,14.70
2023-05-10T07:47:10.926Z,14.66
2023-05-10T07:49:37.555Z,14.56
2023-05-10T07:52:04.706Z,14.91
2023-05-10T07:54:31.471Z,14.84
2023-05-10T07:56:58.106Z,14.55
2023-05-10T07:59:24.746Z,14.16
2023-05-10T08:01:51.273Z,14.04
2023-05-10T08:04:17.879Z,14.38
2023-05-10T08:06:44.454Z,14.44
2023-05-10T08:09:11.969Z,14.62
2023-05-10T08:11:38.896Z,14.41
2023-05-10T08:14:05.506Z,14.73
2023-05-10T08:16:33.468Z,15.37
2023-05-10T08:19:00.312Z,15.89
2023-05-10T08:21:27.280Z,15.15
2023-05-10T08:23:53.923Z,15.40
2023-05-10T08:26:22.567Z,15.75
2023-05-10T08:28:49.501Z,15.81
2023-05-10T08:31:16.662Z,15.94
2023-05-10T08:33:44.507Z,16.00
2023-05-10T08:36:11.676Z,16.06
2023-05-10T08:38:39.054Z,15.83
2023-05-10T08:41:06.443Z,15.76
2023-05-10T08:43:33.272Z,16.44
2023-05-10T08:46:05.924Z,16.83
2023-05-10T08:48:35.469Z,17.24
2023-05-10T08:51:04.319Z,16.16
2023-05-10T08:53:34.172Z,16.88
2023-05-10T08:56:03.454Z,16.85
2023-05-10T08:58:30.106Z,17.20
2023-05-10T09:00:58.033Z,16.78
2023-05-10T09:03:24.695Z,17.28
2023-05-10T09:05:51.478Z,16.04
2023-05-10T09:08:18.899Z,17.06
2023-05-10T09:10:48.318Z,16.38
2023-05-10T09:13:16.629Z,16.25
2023-05-10T09:15:44.925Z,16.19
2023-05-10T09:18:12.164Z,16.38
2023-05-10T09:20:38.782Z,16.28
2023-05-10T09:23:06.001Z,15.96
2023-05-10T09:25:34.609Z,16.35
2023-05-10T09:28:01.759Z,16.70
2023-05-10T09:30:32.150Z,17.07
2023-05-10T09:33:00.877Z,17.53
2023-05-10T09:35:32.587Z,18.14
2023-05-10T09:38:01.781Z,18.47
2023-05-10T09:40:29.770Z,18.19
2023-05-10T09:43:00.874Z,17.26
2023-05-10T09:45:32.544Z,17.12
2023-05-10T09:48:00.598Z,17.04
2023-05-10T09:50:27.765Z,17.69
2023-05-10T09:53:02.000Z,17.61
2023-05-10T09:55:47.369Z,18.04
2023-05-10T09:58:15.391Z,17.41
2023-05-10T10:00:48.756Z,16.56
2023-05-10T10:03:18.462Z,16.53
2023-05-10T10:05:46.285Z,16.60
2023-05-10T10:08:14.058Z,16.80
2023-05-10T10:10:41.856Z,16.49
2023-05-10T10:13:09.243Z,16.94
2023-05-10T10:15:36.652Z,17.94
2023-05-10T10:18:05.233Z,17.67
2023-05-10T10:20:32.151Z,17.11
2023-05-10T10:22:58.752Z,17.44
2023-05-10T10:25:26.574Z,17.63
2023-05-10T10:27:53.211Z,17.67
2023-05-10T10:30:42.741Z,17.77
2023-05-10T10:33:30.836Z,17.32
2023-05-10T10:36:01.025Z,17.66
2023-05-10T10:38:38.212Z,17.49
2023-05-10T10:41:29.449Z,17.91
2023-05-10T10:44:27.300Z,16.76
2023-05-10T10:47:00.615Z,16.47
2023-05-10T10:49:27.991Z,16.44
2023-05-10T10:52:28.692Z,17.08
2023-05-10T10:55:11.674Z,16.64
2023-05-10T10:57:41.271Z,17.44
2023-05-10T11:00:23.033Z,18.18
2023-05-10T11:02:52.715Z,18.18
2023-05-10T11:05:25.842Z,18.75
2023-05-10T11:07:59.616Z,18.90
2023-05-10T11:10:27.795Z,18.71
2023-05-10T11:12:55.101Z,19.27
2023-05-10T11:15:29.862Z,18.93
2023-05-10T11:17:56.977Z,18.49
2023-05-10T11:20:25.924Z,18.57
2023-05-10T11:22:53.347Z,18.00
2023-05-10T11:25:20.394Z,17.79
2023-05-10T11:27:49.222Z,18.21
2023-05-10T11:30:16.255Z,18.66
2023-05-10T11:32:43.761Z,17.42
2023-05-10T11:35:11.612Z,18.12
2023-05-10T11:37:42.396Z,18.94
2023-05-10T11:40:10.804Z,18.30
2023-05-10T11:42:38.845Z,18.08
2023-05-10T11:45:06.666Z,18.21
2023-05-10T11:47:33.272Z,17.97
2023-05-10T11:50:01.071Z,17.98
2023-05-10T11:52:27.703Z,17.76
2023-05-10T11:54:55.364Z,17.34
2023-05-10T11:57:26.706Z,17.27
2023-05-10T11:59:58.183Z,18.22
2023-05-10T12:02:25.318Z,17.72
2023-05-10T12:04:52.712Z,18.88
2023-05-10T12:07:19.332Z,18.50
2023-05-10T12:10:03.404Z,18.95
2023-05-10T12:12:43.376Z,18.60
2023-05-10T12:15:29.206Z,18.14
2023-05-10T12:17:57.709Z,18.81
2023-05-10T12:20:25.544Z,18.78
2023-05-10T12:22:58.327Z,18.69
2023-05-10T12:25:33.713Z,18.78
2023-05-10T12:28:03.644Z,19.68
2023-05-10T12:30:32.160Z,20.40
2023-05-10T12:33:09.986Z,19.09
2023-05-10T12:35:46.926Z,18.54
2023-05-10T12:38:52.386Z,18.91
2023-05-10T12:41:19.438Z,19.78
2023-05-10T12:43:49.193Z,19.33
2023-05-10T12:46:19.543Z,18.98
2023-05-10T12:48:47.362Z,19.57
2023-05-10T12:51:16.768Z,19.68
2023-05-10T12:53:45.661Z,19.33
2023-05-10T12:56:13.213Z,20.07
2023-05-10T12:58:39.689Z,20.37
2023-05-10T13:01:06.569Z,20.95
2023-05-10T13:03:33.197Z,20.24
2023-05-10T13:05:59.720Z,20.19
2023-05-10T13:08:26.300Z,20.49
2023-05-10T13:10:53.215Z,20.81
2023-05-10T13:13:19.791Z,20.82
2023-05-10T13:15:46.284Z,20.60
2023-05-10T13:18:12.805Z,20.66
2023-05-10T13:20:39.479Z,20.14
2023-05-10T13:23:06.038Z,20.39
2023-05-10T13:25:32.620Z,19.51
2023-05-10T13:27:59.102Z,20.13
2023-05-10T13:30:25.546Z,19.87
2023-05-10T13:32:52.109Z,20.04
2023-05-10T13:35:18.763Z,19.81
2023-05-10T13:37:45.298Z,20.53
2023-05-10T13:40:11.974Z,21.20
2023-05-10T13:42:38.529Z,19.98
2023-05-10T13:45:05.674Z,20.99
2023-05-10T13:47:32.400Z,21.33
2023-05-10T13:49:59.332Z,20.55
2023-05-10T13:52:27.709Z,21.36
2023-05-10T13:54:56.214Z,20.92
2023-05-10T13:57:24.026Z,21.18
2023-05-10T13:59:50.912Z,20.11
2023-05-10T14:02:17.341Z,19.07
2023-05-10T14:04:44.158Z,18.62
2023-05-10T14:07:10.623Z,18.84
2023-05-10T14:09:37.182Z,19.05
2023-05-10T14:12:03.788Z,19.39
2023-05-10T14:14:30.480Z,19.63
2023-05-10T14:16:57.196Z,20.74
2023-05-10T14:19:23.775Z,19.87
2023-05-10T14:21:50.451Z,20.99
2023-05-10T14:24:16.955Z,21.15
2023-05-10T14:26:43.454Z,20.22
2023-05-10T14:29:12.248Z,20.52
2023-05-10T14:31:39.263Z,21.54
2023-05-10T14:34:06.727Z,21.69
2023-05-10T14:36:33.597Z,20.77
2023-05-10T14:39:00.239Z,20.61
2023-05-10T14:41:26.710Z,19.64
2023-05-10T14:43:53.734Z,19.65
2023-05-10T14:46:20.710Z,19.08
2023-05-10T14:48:47.343Z,19.17
2023-05-10T14:51:16.340Z,19.42
2023-05-10T14:53:43.751Z,19.84
2023-05-10T14:56:10.301Z,21.20
2023-05-10T14:58:36.786Z,23.87
2023-05-10T15:01:03.644Z,26.20
2023-05-10T15:03:30.809Z,27.65
2023-05-10T15:05:58.736Z,24.23
2023-05-10T15:08:25.689Z,23.29
2023-05-10T15:10:52.731Z,24.02
2023-05-10T15:13:19.196Z,23.72
2023-05-10T15:15:45.746Z,20.82
2023-05-10T15:18:12.580Z,20.57
2023-05-10T15:20:39.133Z,18.59
2023-05-10T15:23:05.660Z,18.89
2023-05-10T15:25:32.257Z,18.88
2023-05-10T15:27:58.724Z,18.86
2023-05-10T15:30:25.291Z,18.90
2023-05-10T15:32:51.850Z,18.40
2023-05-10T15:35:18.700Z,17.72
2023-05-10T15:37:45.658Z,17.59
2023-05-10T15:40:12.385Z,17.68
2023-05-10T15:42:38.895Z,18.36
2023-05-10T15:45:05.882Z,17.92
2023-05-10T15:47:32.693Z,18.55
2023-05-10T15:49:59.258Z,19.08
2023-05-10T15:52:25.903Z,18.82
2023-05-10T15:54:52.502Z,18.74
2023-05-10T15:57:19.083Z,19.27
2023-05-10T15:59:45.909Z,19.22
2023-05-10T16:02:12.615Z,19.83
2023-05-10T16:04:39.331Z,21.07
2023-05-10T16:07:06.079Z,24.66
2023-05-10T16:09:32.712Z,25.99
2023-05-10T16:11:59.447Z,28.01
2023-05-10T16:14:26.286Z,29.01
2023-05-10T16:16:52.964Z,30.69
2023-05-10T16:19:19.665Z,28.52
2023-05-10T16:21:47.545Z,29.32
2023-05-10T16:24:14.191Z,25.73
2023-05-10T16:26:41.232Z,25.53
2023-05-10T16:29:08.619Z,26.68
2023-05-10T16:31:35.434Z,30.04
2023-05-10T16:34:02.468Z,24.79
2023-05-10T16:36:29.617Z,22.89
2023-05-10T16:38:56.711Z,23.53
2023-05-10T16:41:23.280Z,23.64
2023-05-10T16:43:50.207Z,23.90
2023-05-10T16:46:16.838Z,21.14
2023-05-10T16:48:43.489Z,20.26
2023-05-10T16:51:10.080Z,19.31
2023-05-10T16:53:36.694Z,19.21
2023-05-10T16:56:03.703Z,18.69
2023-05-10T16:58:30.265Z,18.33
2023-05-10T17:00:56.845Z,17.90
2023-05-10T17:03:23.619Z,18.26
2023-05-10T17:05:50.518Z,18.67
2023-05-10T17:08:17.298Z,17.88
2023-05-10T17:10:43.880Z,17.85
2023-05-10T17:13:10.884Z,17.75
2023-05-10T17:15:38.712Z,17.10
2023-05-10T17:18:07.068Z,17.00
2023-05-10T17:20:34.378Z,16.42
2023-05-10T17:23:02.696Z,15.99
2023-05-10T17:25:29.623Z,16.31
2023-05-10T17:27:56.340Z,16.43
2023-05-10T17:30:26.458Z,16.44
2023-05-10T17:32:54.264Z,16.74
2023-05-10T17:35:21.591Z,16.97
2023-05-10T17:37:48.308Z,17.30
2023-05-10T17:40:15.185Z,16.75
2023-05-10T17:42:42.024Z,16.37
2023-05-10T17:45:09.534Z,15.62
2023-05-10T17:47:36.149Z,15.43
2023-05-10T17:50:02.825Z,15.39
2023-05-10T17:52:32.811Z,15.50
2023-05-10T17:55:00.056Z,15.44
2023-05-10T17:57:26.693Z,15.40
2023-05-10T17:59:53.247Z,15.29
2023-05-10T18:02:19.906Z,15.22
2023-05-10T18:04:46.812Z,15.10
2023-05-10T18:07:13.519Z,14.92
2023-05-10T18:09:40.071Z,14.65
2023-05-10T18:12:06.711Z,14.70
2023-05-10T18:17:02.879Z,14.21
2023-05-10T18:19:29.504Z,13.87
2023-05-10T18:21:56.020Z,13.77
2023-05-10T18:24:30.546Z,13.65
2023-05-10T18:27:05.362Z,13.37
2023-05-10T18:29:31.901Z,13.43
2023-05-10T18:31:58.362Z,13.67
2023-05-10T18:34:24.933Z,13.09
2023-05-10T18:36:52.460Z,12.70
2023-05-10T18:39:19.143Z,12.61
2023-05-10T18:41:45.843Z,12.26
2023-05-10T18:44:12.427Z,12.10
2023-05-10T18:46:39.158Z,12.26
2023-05-10T18:49:06.617Z,12.26
2023-05-10T18:51:33.131Z,12.18
2023-05-10T18:54:00.462Z,11.93
2023-05-10T18:56:27.411Z,11.73
2023-05-10T18:58:54.013Z,11.63
2023-05-10T19:01:21.561Z,11.45
2023-05-10T19:03:48.182Z,11.48
2023-05-10T19:06:14.991Z,11.34
2023-05-10T19:08:41.605Z,11.39
2023-05-10T19:11:08.232Z,11.44
2023-05-10T19:13:35.142Z,11.36
2023-05-10T19:16:07.595Z,11.24
2023-05-10T19:18:34.549Z,10.87
2023-05-10T19:21:04.855Z,10.75
2023-05-10T19:23:34.121Z,10.44
2023-05-10T19:26:01.231Z,10.59
2023-05-10T19:28:28.048Z,10.63
2023-05-10T19:30:55.025Z,10.61
2023-05-10T19:33:22.073Z,10.66
2023-05-10T19:35:53.590Z,10.63
2023-05-10T19:38:25.005Z,10.70
2023-05-10T19:40:58.563Z,10.61
2023-05-10T19:43:26.618Z,10.81
2023-05-10T19:45:53.665Z,10.77
2023-05-10T19:48:20.753Z,10.60
2023-05-10T19:50:47.380Z,10.51
2023-05-10T19:53:14.033Z,10.63
2023-05-10T19:55:40.648Z,10.84
2023-05-10T19:58:08.531Z,10.57
2023-05-10T20:00:35.619Z,10.62
2023-05-10T20:03:02.460Z,10.36
2023-05-10T20:05:29.393Z,10.44
2023-05-10T20:07:56.155Z,10.44
2023-05-10T20:10:24.281Z,10.46
2023-05-10T20:12:52.984Z,10.49
2023-05-10T20:15:22.212Z,10.53
2023-05-10T20:17:51.219Z,10.47
2023-05-10T20:20:18.345Z,10.44
2023-05-10T20:22:46.117Z,10.59
2023-05-10T20:25:13.651Z,10.82
2023-05-10T20:27:40.344Z,10.91
2023-05-10T20:30:07.799Z,10.72
2023-05-10T20:32:34.778Z,10.92
2023-05-10T20:35:01.638Z,10.94
2023-05-10T20:37:28.675Z,10.94
2023-05-10T20:39:55.891Z,10.95
2023-05-10T20:42:22.815Z,10.91
2023-05-10T20:44:50.289Z,10.81
2023-05-10T20:47:18.121Z,10.60
2023-05-10T20:49:44.702Z,10.60
2023-05-10T20:52:11.571Z,10.69
2023-05-10T20:54:38.350Z,10.56
2023-05-10T20:57:04.962Z,10.47
2023-05-10T20:59:31.465Z,10.60
2023-05-10T21:01:58.144Z,10.80
2023-05-10T21:04:25.973Z,10.92
2023-05-10T21:06:53.327Z,10.96
2023-05-10T21:09:20.074Z,11.21
2023-05-10T21:11:46.698Z,11.28
2023-05-10T21:14:13.345Z,11.20
2023-05-10T21:16:40.054Z,11.27
2023-05-10T21:19:07.545Z,11.29
2023-05-10T21:21:34.415Z,11.21
2023-05-10T21:24:01.217Z,11.31
2023-05-10T21:26:28.663Z,11.23
2023-05-10T21:28:55.500Z,11.26
2023-05-10T21:31:22.140Z,11.25
2023-05-10T21:33:48.728Z,11.45
2023-05-10T21:36:15.271Z,11.74
2023-05-10T21:38:44.377Z,11.68
2023-05-10T21:41:11.178Z,11.84
2023-05-10T21:43:37.887Z,11.80
2023-05-10T21:46:04.840Z,11.67
2023-05-10T21:48:31.442Z,11.51
2023-05-10T21:50:58.780Z,11.53
2023-05-10T21:53:25.332Z,11.49
2023-05-10T21:55:51.907Z,11.39
2023-05-10T21:58:18.807Z,11.50
2023-05-10T22:00:45.319Z,11.47
2023-05-10T22:03:11.969Z,11.32
2023-05-10T22:05:39.070Z,11.55
2023-05-10T22:08:08.525Z,11.60
2023-05-10T22:10:35.167Z,11.76
2023-05-10T22:13:01.771Z,11.99
2023-05-10T22:15:28.415Z,11.83
2023-05-10T22:17:54.935Z,11.73
2023-05-10T22:20:22.132Z,11.64
2023-05-10T22:22:48.958Z,11.67
2023-05-10T22:25:15.622Z,11.65
2023-05-10T22:27:42.218Z,11.69
2023-05-10T22:30:09.318Z,11.73
2023-05-10T22:32:35.947Z,11.69
2023-05-10T22:35:03.224Z,11.68
2023-05-10T22:37:29.879Z,11.79
2023-05-10T22:39:56.488Z,11.77
2023-05-10T22:42:23.068Z,11.63
2023-05-10T22:44:49.628Z,11.78
2023-05-10T22:47:16.696Z,11.67
2023-05-10T22:49:43.260Z,11.72
2023-05-10T22:52:10.175Z,11.66
2023-05-10T22:54:36.700Z,11.69
2023-05-10T22:57:03.481Z,11.64
2023-05-10T22:59:30.077Z,11.69
2023-05-10T23:01:56.762Z,11.60
2023-05-10T23:04:23.428Z,11.59
2023-05-10T23:06:49.992Z,11.54
2023-05-10T23:09:16.743Z,11.46
2023-05-10T23:11:43.268Z,11.57
2023-05-10T23:14:09.838Z,11.58
2023-05-10T23:16:36.711Z,11.44
2023-05-10T23:19:03.611Z,11.44
2023-05-10T23:21:32.218Z,11.34
2023-05-10T23:23:59.039Z,11.48
2023-05-10T23:26:25.642Z,11.50
2023-05-10T23:28:52.344Z,11.40
2023-05-10T23:31:18.961Z,11.36
2023-05-10T23:33:45.661Z,11.41
2023-05-10T23:36:12.468Z,11.47
2023-05-10T23:38:39.454Z,11.40
2023-05-10T23:41:06.258Z,11.40
2023-05-10T23:43:32.844Z,11.45
2023-05-10T23:45:59.593Z,11.39
2023-05-10T23:48:26.366Z,11.53
2023-05-10T23:50:53.207Z,11.42
2023-05-10T23:53:19.874Z,11.38
2023-05-10T23:55:46.490Z,11.33
2023-05-10T23:58:13.121Z,11.39
